Airfield :
LOGIN :

Register | Disclaimer

   EN    FR    IT 

 










Legend :    VFR   Marginal VFR   IFR   Intensive IFR   Very Intensive IFR
Visi :
Ceiling :
>= 8 km
>= 3000ft
5 to 8 km
1000 to 3000 ft
1500m to 5 km
500 to 1000 ft
800 to 1500m
200 to 500 ft
< 800m
< 200 ft
Symbols :   Thunderstorms  Fog  Heavy snow  Heavy precipitations  Wind > 20 kt
SIGMETs :     Misc.  Thunderstorms  Icing  Turbulence  Mountain Waves  Volcanic Ashes






- Airport Elevation : 978 ft
- IATA code : LNZ


LOWL - Linz

CURRENT METAR :
  • 042250Z AUTO 06012KT 9999 NCD 05/M00 Q0995

EXPIRED METARs :
  • 042220Z AUTO 07010KT 9999 NCD 05/M01 Q0995
  • 042150Z AUTO 08010KT 9999 NCD 05/M01 Q0995 R08/190195 NOSIG
  • 042120Z AUTO 08013KT 9999 NCD 05/M01 Q0995 R08/190195 NOSIG
  • 042050Z AUTO 05010KT 9999 NCD 04/M01 Q0995 R08/190195 NOSIG
  • 042020Z AUTO 06007KT 9999 NCD 04/M01 Q0995 R08/190195 NOSIG

TAF TAF LOWL
Valid from the 04 at 18:00 until the 05 at 18:00 UTC


041715Z 0418/0518 09010KT CAVOK TX07/0511Z TN02/0418Z
BECMG 0423/0501 09015KT
TEMPO 0500/0505 09020G30KT
BECMG 0506/0508 09007KT
TEMPO 0508/0518 25003KT



MET'MAP, your aeronautical weather chart ! - Copyright ORBIFLY December 2007 - Disclaimer

ORBIFLY MET'MAP TEAM :

Programming & Development : Alexandra Zaïnal
Concept & original design : Baudouin d'Aumeries
Assistance for programming : Marc-Olivier Méhu
Technical & hardware support : Manuel Goepfert

Contact : metmap@orbifly.com




SOURCES & CREDITS :

   NOAA